createdAt,value
2022-12-09T07:11:36.780Z,67.71
2022-12-09T07:14:04.669Z,66.72
2022-12-09T07:16:33.730Z,67.17
2022-12-09T07:19:01.013Z,67.36
2022-12-09T07:21:28.512Z,67.05
2022-12-09T07:23:55.405Z,66.30
2022-12-09T07:26:25.076Z,66.14
2022-12-09T07:28:51.975Z,66.52
2022-12-09T12:25:54.332Z,74.16
2022-12-09T12:29:06.891Z,68.25
2022-12-09T12:31:51.538Z,62.61
2022-12-09T12:35:06.012Z,55.51
2022-12-09T12:37:32.561Z,52.25
2022-12-09T12:40:43.224Z,50.33
2022-12-09T12:44:09.686Z,48.54
2022-12-09T12:47:03.312Z,47.56
2022-12-09T12:53:38.915Z,31.53
2022-12-09T12:56:11.613Z,36.77
2022-12-09T12:58:37.998Z,40.11
2022-12-09T13:01:12.934Z,43.83
2022-12-09T13:03:46.959Z,45.55
2022-12-09T13:06:16.281Z,47.50
2022-12-09T13:08:56.050Z,48.99
2022-12-09T13:11:55.205Z,50.22
2022-12-09T13:14:32.081Z,51.56
2022-12-09T13:17:01.653Z,53.55
2022-12-09T13:19:39.685Z,53.71
2022-12-09T13:22:13.872Z,54.08
2022-12-09T13:24:53.074Z,55.32
2022-12-09T13:27:35.496Z,56.94
2022-12-09T13:30:25.143Z,58.22
2022-12-09T13:33:19.547Z,57.78
2022-12-09T13:36:06.892Z,57.46
2022-12-09T13:38:39.601Z,57.54
2022-12-09T13:41:26.355Z,57.97
2022-12-09T13:43:54.958Z,57.98
2022-12-09T13:46:23.773Z,58.02
2022-12-09T13:48:51.536Z,57.18
2022-12-09T13:51:19.816Z,57.15
2022-12-09T13:53:58.590Z,56.46
2022-12-09T13:56:31.966Z,57.10
2022-12-09T13:59:16.001Z,57.42
2022-12-09T14:01:49.310Z,58.04
2022-12-09T14:04:22.936Z,58.22
2022-12-09T14:06:55.241Z,58.43
2022-12-09T14:09:33.206Z,57.91
2022-12-09T14:12:06.283Z,58.98
2022-12-09T14:14:32.687Z,59.62
2022-12-09T14:17:16.165Z,59.45
2022-12-09T14:19:42.771Z,59.30
2022-12-09T14:22:18.661Z,59.03
2022-12-09T14:24:58.370Z,60.16
2022-12-09T14:27:29.557Z,59.98
2022-12-09T14:30:41.720Z,61.41
2022-12-09T14:33:47.381Z,61.10
2022-12-09T14:36:13.809Z,60.96
2022-12-09T14:39:22.371Z,62.05
2022-12-09T14:42:11.366Z,62.94
2022-12-09T14:44:55.077Z,62.60
2022-12-09T14:47:29.956Z,63.20
2022-12-09T14:50:12.589Z,63.43
2022-12-09T14:53:00.575Z,63.58
2022-12-09T14:55:29.282Z,64.04
2022-12-09T14:57:59.980Z,64.02
2022-12-09T15:00:44.773Z,65.19
2022-12-09T15:03:45.285Z,65.85
2022-12-09T15:06:17.660Z,65.69
2022-12-09T15:08:44.440Z,66.01
2022-12-09T15:11:20.600Z,65.63
2022-12-09T15:13:49.563Z,65.98
2022-12-09T15:16:19.651Z,66.31
2022-12-09T15:18:47.688Z,66.09
2022-12-09T15:21:31.630Z,65.92
2022-12-09T15:23:59.968Z,66.94
2022-12-09T15:26:30.613Z,66.87
2022-12-09T15:28:59.398Z,66.62
2022-12-09T15:31:28.882Z,66.73
2022-12-09T15:33:57.846Z,66.81
2022-12-09T15:36:35.616Z,66.46
2022-12-09T15:39:04.722Z,66.85
2022-12-09T15:41:58.951Z,66.98
2022-12-09T15:44:26.885Z,66.82
2022-12-09T15:46:55.644Z,66.90
2022-12-09T15:49:31.662Z,66.98
2022-12-09T15:52:01.063Z,66.61
2022-12-09T15:54:32.382Z,66.80
2022-12-09T15:57:02.175Z,66.33
2022-12-09T15:59:41.885Z,67.00
2022-12-09T16:02:12.814Z,67.01
2022-12-09T16:04:45.113Z,66.96
2022-12-09T16:07:13.767Z,67.46
2022-12-09T16:09:40.357Z,67.46
2022-12-09T16:12:32.436Z,68.34
2022-12-09T16:14:59.095Z,67.81
2022-12-09T16:17:32.014Z,67.83
2022-12-09T16:19:58.965Z,67.02
2022-12-09T16:22:29.405Z,67.14
2022-12-09T16:25:26.085Z,67.20
2022-12-09T16:28:27.008Z,67.07
2022-12-09T16:30:59.219Z,66.72
2022-12-09T16:33:27.225Z,66.91
2022-12-09T16:36:02.318Z,66.61
2022-12-09T16:38:30.508Z,67.07
2022-12-09T16:40:59.131Z,67.64
2022-12-09T16:43:27.670Z,67.09
2022-12-09T16:45:57.468Z,66.59
2022-12-09T16:48:25.622Z,67.48
2022-12-09T16:51:14.098Z,67.36
2022-12-09T16:53:46.842Z,67.59
2022-12-09T16:56:25.378Z,67.51
2022-12-09T16:58:52.979Z,67.18
2022-12-09T17:01:22.477Z,67.85
2022-12-09T17:03:57.880Z,67.31
2022-12-09T17:06:25.017Z,67.31
2022-12-09T17:08:53.389Z,67.14
2022-12-09T17:11:21.903Z,67.79
2022-12-09T17:14:26.516Z,67.27
2022-12-09T17:22:24.828Z,67.15
2022-12-09T17:24:51.601Z,68.22
2022-12-09T17:27:18.256Z,68.31
2022-12-09T17:29:46.269Z,67.81
2022-12-09T17:32:13.092Z,67.84
2022-12-09T17:34:39.886Z,67.72
2022-12-09T17:37:09.550Z,67.27
2022-12-09T17:39:36.232Z,66.96
2022-12-09T17:42:03.741Z,66.93
2022-12-09T17:44:30.349Z,67.36
2022-12-09T17:46:56.942Z,66.96
2022-12-09T17:49:23.724Z,67.63
2022-12-09T17:51:50.596Z,67.50
2022-12-09T17:54:17.480Z,67.34
2022-12-09T17:56:44.224Z,67.77
2022-12-09T17:59:13.490Z,67.32
2022-12-09T18:01:41.279Z,67.83
2022-12-09T18:04:11.263Z,67.99
2022-12-09T18:06:41.125Z,67.96
2022-12-09T18:09:10.563Z,67.48
2022-12-09T18:11:37.806Z,67.46
2022-12-09T18:14:05.222Z,67.81
2022-12-09T18:16:32.198Z,67.49
2022-12-09T18:19:07.718Z,67.17
2022-12-09T18:21:34.759Z,67.62
2022-12-09T18:24:01.688Z,67.15
2022-12-09T18:26:32.059Z,67.07
2022-12-09T18:29:00.714Z,67.60
2022-12-09T18:31:27.658Z,67.18
2022-12-09T18:33:54.198Z,67.22
2022-12-09T18:36:23.725Z,67.71
2022-12-09T18:38:50.909Z,67.75
2022-12-09T18:41:23.580Z,67.71
2022-12-09T18:43:52.169Z,66.75
2022-12-09T18:46:28.619Z,66.96
2022-12-09T18:49:02.571Z,67.51
2022-12-09T18:51:29.821Z,67.83
2022-12-09T18:53:58.804Z,67.19
2022-12-09T18:56:26.002Z,67.34
2022-12-09T18:59:09.298Z,67.56
2022-12-09T19:01:40.453Z,67.22
2022-12-09T19:04:13.200Z,67.59
2022-12-09T19:06:41.801Z,67.07
2022-12-09T19:09:20.256Z,67.55
2022-12-09T19:11:47.956Z,67.97
2022-12-09T19:14:15.829Z,67.75
2022-12-09T19:16:43.035Z,67.41
2022-12-09T19:19:12.795Z,68.10
2022-12-09T19:21:39.636Z,67.95
2022-12-09T19:24:07.418Z,67.85
2022-12-09T19:26:35.324Z,67.78
2022-12-09T19:29:04.742Z,67.33
2022-12-09T19:31:35.973Z,67.53
2022-12-09T19:34:06.283Z,67.87
2022-12-09T19:36:35.754Z,67.70
2022-12-09T19:39:04.369Z,67.89
2022-12-09T19:41:30.989Z,67.64
2022-12-09T19:43:59.405Z,68.12
2022-12-09T19:46:28.602Z,67.93
2022-12-09T19:48:55.849Z,68.00
2022-12-09T19:51:24.208Z,68.58
2022-12-09T19:53:54.941Z,68.43
2022-12-09T19:56:22.133Z,68.38
2022-12-09T19:58:49.117Z,67.77
2022-12-09T20:01:18.257Z,68.59
2022-12-09T20:03:48.038Z,68.39
2022-12-09T20:06:17.148Z,68.61
2022-12-09T20:08:44.642Z,68.31
2022-12-09T20:11:15.491Z,68.76
2022-12-09T20:13:42.458Z,68.37
2022-12-09T20:16:11.283Z,68.13
2022-12-09T20:18:38.310Z,68.26
2022-12-09T20:21:07.773Z,68.08
2022-12-09T20:23:35.851Z,68.63
2022-12-09T20:26:07.092Z,68.36
2022-12-09T20:28:34.569Z,68.52
2022-12-09T20:31:06.814Z,68.38
2022-12-09T20:33:34.010Z,68.09
2022-12-09T20:36:10.354Z,68.24
2022-12-09T20:38:37.783Z,68.04
2022-12-09T20:41:06.881Z,68.26
2022-12-09T20:43:39.406Z,68.56
2022-12-09T20:46:06.968Z,68.26
2022-12-09T20:48:34.230Z,68.58
2022-12-09T20:51:04.106Z,68.56
2022-12-09T20:53:30.602Z,68.16
2022-12-09T20:55:58.849Z,68.11
2022-12-09T20:58:25.645Z,67.98
2022-12-09T21:00:52.206Z,68.38
2022-12-09T21:03:19.236Z,68.28
2022-12-09T21:05:45.971Z,68.18
2022-12-09T21:08:12.528Z,68.51
2022-12-09T21:10:39.247Z,68.01
2022-12-09T21:13:05.753Z,68.25
2022-12-09T21:15:32.312Z,67.82
2022-12-09T21:17:58.746Z,68.63
2022-12-09T21:20:25.264Z,68.47
2022-12-09T21:23:24.862Z,68.52
2022-12-09T21:25:38.692Z,68.50
2022-12-09T21:28:05.117Z,68.14
2022-12-09T21:30:31.578Z,68.36
2022-12-09T21:32:58.040Z,68.06
2022-12-09T21:35:24.541Z,67.84
2022-12-09T21:37:55.979Z,68.54
2022-12-09T21:40:22.834Z,68.32
2022-12-09T21:42:49.341Z,68.39
2022-12-09T21:45:16.111Z,68.20
2022-12-09T21:47:42.585Z,68.11
2022-12-09T21:50:09.562Z,67.93
2022-12-09T21:52:36.267Z,68.34
2022-12-09T21:55:03.509Z,68.28
2022-12-09T21:57:30.017Z,68.63
2022-12-09T21:59:56.475Z,68.55
2022-12-09T22:02:23.012Z,68.88
2022-12-09T22:04:49.502Z,68.47
2022-12-09T22:07:16.034Z,68.39
2022-12-09T22:09:42.550Z,68.30
2022-12-09T22:12:09.193Z,68.77
2022-12-09T22:14:37.097Z,68.43
2022-12-09T22:17:03.608Z,68.21
2022-12-09T22:19:30.071Z,68.32
2022-12-09T22:21:56.680Z,68.53
2022-12-09T22:24:23.100Z,68.62
2022-12-09T22:26:49.588Z,69.20
2022-12-09T22:29:17.447Z,68.11
2022-12-09T22:31:45.285Z,68.34
2022-12-09T22:34:16.923Z,69.15
2022-12-09T22:36:43.630Z,68.17
2022-12-09T22:39:19.037Z,68.55
2022-12-09T22:41:46.073Z,68.37
2022-12-09T22:44:15.742Z,68.12
2022-12-09T22:46:42.423Z,68.32
2022-12-09T22:49:12.923Z,68.19
2022-12-09T22:51:40.420Z,68.04
2022-12-09T22:54:09.162Z,68.31
2022-12-09T22:56:38.192Z,69.27
2022-12-09T22:59:05.229Z,67.89
2022-12-09T23:01:35.528Z,68.17
2022-12-09T23:04:03.533Z,68.42
2022-12-09T23:06:31.036Z,68.50
2022-12-09T23:08:57.921Z,68.86
2022-12-09T23:11:26.474Z,68.79
2022-12-09T23:13:53.884Z,68.60
2022-12-09T23:16:23.344Z,68.53
2022-12-09T23:18:51.297Z,68.99
2022-12-09T23:21:22.203Z,68.33
2022-12-09T23:23:52.572Z,68.37
2022-12-09T23:26:20.977Z,68.89
2022-12-09T23:28:49.257Z,68.51
2022-12-09T23:31:18.579Z,68.60
2022-12-09T23:33:47.020Z,68.95
2022-12-09T23:36:14.710Z,68.27
2022-12-09T23:38:41.897Z,68.67
2022-12-09T23:41:09.598Z,68.96
2022-12-09T23:43:37.758Z,69.39
2022-12-09T23:46:13.047Z,68.82
2022-12-09T23:48:42.779Z,69.45
2022-12-09T23:51:18.110Z,69.04
2022-12-09T23:53:46.399Z,69.57
2022-12-09T23:56:14.756Z,69.66
2022-12-09T23:58:42.055Z,69.69
